Time;durP1;ratioP1;P1;durP2;ratioP2;P2;SDS_P1;SDS_P2;PMS_P1;PMS_P2;Temp;Humidity;BMP_temperature;BMP_pressure;BME280_temperature;BME280_humidity;BME280_pressure;Samples;Min_cycle;Max_cycle;Signal;HPM_P1;HPM_P2
2022/07/31 00:00:24;;;;;;;3.03;1.70;;;;;;;;;;5100298;28;20686;-64
2022/07/31 00:02:52;;;;;;;2.20;1.30;;;;;;;;;;5100347;28;20237;-64
2022/07/31 00:05:20;;;;;;;8.25;1.90;;;;;;;;;;5100250;28;20758;-64
2022/07/31 00:07:48;;;;;;;1.98;1.83;;;;;;;;;;5100061;28;20562;-64
2022/07/31 00:10:17;;;;;;;2.67;1.65;;;;;;;;;;5100018;28;20304;-64
2022/07/31 00:12:45;;;;;;;1.70;1.60;;;;;;;;;;5086422;28;20250;-64
2022/07/31 00:15:13;;;;;;;2.22;1.70;;;;;;;;;;5090428;28;20195;-64
2022/07/31 00:17:41;;;;;;;2.55;1.50;;;;;;;;;;5100103;28;20231;-63
2022/07/31 00:20:12;;;;;;;2.65;1.90;;;;;;;;;;5100206;28;20240;-63
2022/07/31 00:22:40;;;;;;;2.05;1.63;;;;;;;;;;5099803;28;20290;-63
2022/07/31 00:25:09;;;;;;;2.13;1.70;;;;;;;;;;5099516;28;20291;-64
2022/07/31 00:27:38;;;;;;;3.10;1.40;;;;;;;;;;5098086;28;20226;-63
2022/07/31 00:30:07;;;;;;;4.85;1.63;;;;;;;;;;5099579;28;20255;-63
2022/07/31 00:32:35;;;;;;;2.77;1.50;;;;;;;;;;5099564;28;20267;-63
2022/07/31 00:35:03;;;;;;;2.35;1.45;;;;;;;;;;5099485;28;20226;-63
2022/07/31 00:37:32;;;;;;;2.58;1.60;;;;;;;;;;5099857;28;20266;-63
2022/07/31 00:40:00;;;;;;;3.03;1.50;;;;;;;;;;5094796;28;20233;-63
2022/07/31 00:42:28;;;;;;;2.33;2.13;;;;;;;;;;5087591;28;20206;-63
2022/07/31 00:44:58;;;;;;;1.73;1.50;;;;;;;;;;5098336;28;20229;-63
2022/07/31 00:47:26;;;;;;;2.80;1.50;;;;;;;;;;5099278;28;20682;-63
2022/07/31 00:49:56;;;;;;;3.97;1.52;;;;;;;;;;5116351;28;20208;-63
2022/07/31 00:52:25;;;;;;;2.33;1.43;;;;;;;;;;5116998;28;20207;-63
2022/07/31 00:54:53;;;;;;;2.73;1.57;;;;;;;;;;5099106;28;20258;-63
2022/07/31 00:57:21;;;;;;;2.83;1.40;;;;;;;;;;5099077;28;20255;-63
2022/07/31 00:59:48;;;;;;;4.53;1.60;;;;;;;;;;5099045;28;20244;-63
2022/07/31 01:02:18;;;;;;;1.63;1.53;;;;;;;;;;5099085;28;20244;-63
2022/07/31 01:04:46;;;;;;;3.97;1.47;;;;;;;;;;5098893;28;20668;-63
2022/07/31 01:07:14;;;;;;;2.93;1.30;;;;;;;;;;5099109;28;20237;-63
2022/07/31 01:09:43;;;;;;;4.40;1.70;;;;;;;;;;5098936;28;20257;-63
2022/07/31 01:12:15;;;;;;;1.47;1.37;;;;;;;;;;5098825;28;20246;-63
2022/07/31 01:14:46;;;;;;;2.03;1.40;;;;;;;;;;5093622;28;20227;-63
2022/07/31 01:17:15;;;;;;;3.00;1.57;;;;;;;;;;5092895;28;20237;-63
2022/07/31 01:19:45;;;;;;;2.00;1.63;;;;;;;;;;5098966;28;20238;-63
2022/07/31 01:22:23;;;;;;;1.60;1.30;;;;;;;;;;5098918;28;20214;-63
2022/07/31 01:25:05;;;;;;;1.67;1.57;;;;;;;;;;5098276;28;20242;-63
2022/07/31 01:27:41;;;;;;;1.53;1.30;;;;;;;;;;5098468;28;20246;-63
2022/07/31 01:30:18;;;;;;;1.50;1.40;;;;;;;;;;5098567;28;20252;-63
2022/07/31 01:32:48;;;;;;;2.40;1.70;;;;;;;;;;5098603;28;20238;-63
2022/07/31 01:35:17;;;;;;;1.93;1.80;;;;;;;;;;5098889;28;20335;-63
2022/07/31 01:37:48;;;;;;;2.30;1.57;;;;;;;;;;5098417;28;20257;-63
2022/07/31 01:40:17;;;;;;;5.70;1.87;;;;;;;;;;5097835;28;20225;-63
2022/07/31 01:43:00;;;;;;;3.20;1.67;;;;;;;;;;5098511;28;20237;-63
2022/07/31 01:45:30;;;;;;;1.77;1.43;;;;;;;;;;5098305;28;20685;-63
2022/07/31 01:47:58;;;;;;;2.60;1.30;;;;;;;;;;5098427;28;20243;-63
2022/07/31 01:50:27;;;;;;;3.50;1.50;;;;;;;;;;5098216;28;20659;-63
2022/07/31 01:53:12;;;;;;;3.70;1.90;;;;;;;;;;5097915;28;20589;-63
2022/07/31 01:55:41;;;;;;;3.17;1.83;;;;;;;;;;5097959;28;20235;-63
2022/07/31 01:58:30;;;;;;;2.60;1.60;;;;;;;;;;5098019;28;20208;-63
2022/07/31 02:01:00;;;;;;;1.47;1.30;;;;;;;;;;5098241;28;20210;-63
2022/07/31 02:03:31;;;;;;;1.67;1.37;;;;;;;;;;5098210;28;20226;-63
2022/07/31 02:06:12;;;;;;;1.40;1.30;;;;;;;;;;5098139;28;20206;-63
2022/07/31 02:08:41;;;;;;;1.77;1.60;;;;;;;;;;5097954;28;20240;-63
2022/07/31 02:11:10;;;;;;;3.53;1.40;;;;;;;;;;5097640;28;20667;-63
2022/07/31 02:13:38;;;;;;;1.50;1.40;;;;;;;;;;5097873;28;20310;-63
2022/07/31 02:16:07;;;;;;;1.67;1.50;;;;;;;;;;5085975;28;20239;-63
2022/07/31 02:18:36;;;;;;;1.63;1.53;;;;;;;;;;5097819;28;20637;-63
2022/07/31 02:21:04;;;;;;;2.07;1.60;;;;;;;;;;5097992;28;20206;-63
2022/07/31 02:23:32;;;;;;;1.43;1.20;;;;;;;;;;5097542;28;20240;-63
2022/07/31 02:26:00;;;;;;;1.40;1.30;;;;;;;;;;5097771;28;20216;-63
2022/07/31 02:28:29;;;;;;;1.47;1.27;;;;;;;;;;5097700;28;20201;-63
2022/07/31 02:30:57;;;;;;;1.20;1.10;;;;;;;;;;5097961;28;20205;-63
2022/07/31 02:33:27;;;;;;;1.53;1.23;;;;;;;;;;5097395;28;20682;-63
2022/07/31 02:35:56;;;;;;;1.63;1.10;;;;;;;;;;5097855;28;20237;-63
2022/07/31 02:38:26;;;;;;;1.40;1.30;;;;;;;;;;5097761;28;20236;-63
2022/07/31 02:40:55;;;;;;;1.43;1.30;;;;;;;;;;5097269;28;20697;-63
2022/07/31 02:43:24;;;;;;;1.27;1.17;;;;;;;;;;5097384;28;20270;-63
2022/07/31 02:45:52;;;;;;;1.77;1.43;;;;;;;;;;5097467;28;20234;-63
2022/07/31 02:48:20;;;;;;;2.90;1.60;;;;;;;;;;5097412;28;20210;-63
2022/07/31 02:50:50;;;;;;;3.00;1.40;;;;;;;;;;5097426;28;20230;-63
2022/07/31 02:53:18;;;;;;;2.13;1.80;;;;;;;;;;5097317;28;20772;-63
2022/07/31 02:55:46;;;;;;;0.90;0.90;;;;;;;;;;5097194;28;20238;-63
2022/07/31 02:58:14;;;;;;;2.17;1.40;;;;;;;;;;5097616;28;20241;-63
2022/07/31 03:00:42;;;;;;;1.13;1.13;;;;;;;;;;5097324;28;20239;-63
2022/07/31 03:03:10;;;;;;;1.20;1.10;;;;;;;;;;5097135;28;20231;-63
2022/07/31 03:05:38;;;;;;;2.30;1.23;;;;;;;;;;5097352;28;20206;-63
2022/07/31 03:08:08;;;;;;;1.77;1.27;;;;;;;;;;5099289;28;20246;-63
2022/07/31 03:10:36;;;;;;;1.53;1.30;;;;;;;;;;5100881;28;20589;-63
2022/07/31 03:13:05;;;;;;;1.70;1.30;;;;;;;;;;5101287;28;20270;-63
2022/07/31 03:15:33;;;;;;;2.93;1.73;;;;;;;;;;5089099;28;20260;-63
2022/07/31 03:18:01;;;;;;;1.50;1.40;;;;;;;;;;5100942;28;20212;-63
2022/07/31 03:20:38;;;;;;;2.10;1.87;;;;;;;;;;5101270;28;20250;-63
2022/07/31 03:23:09;;;;;;;1.50;1.40;;;;;;;;;;5100755;28;20663;-64
2022/07/31 03:25:37;;;;;;;1.73;1.50;;;;;;;;;;5100448;28;20673;-64
2022/07/31 03:28:05;;;;;;;1.90;1.50;;;;;;;;;;5100979;28;20617;-63
2022/07/31 03:30:34;;;;;;;2.33;1.27;;;;;;;;;;5101039;28;20238;-63
2022/07/31 03:33:02;;;;;;;2.03;1.33;;;;;;;;;;5101017;28;20237;-63
2022/07/31 03:35:30;;;;;;;1.77;1.47;;;;;;;;;;5100837;28;20225;-63
2022/07/31 03:38:00;;;;;;;1.97;1.40;;;;;;;;;;5100990;28;20709;-63
2022/07/31 03:40:49;;;;;;;1.50;1.40;;;;;;;;;;5100210;28;20571;-63
2022/07/31 03:43:17;;;;;;;2.30;1.40;;;;;;;;;;5100770;28;20267;-63
2022/07/31 03:45:46;;;;;;;2.87;1.57;;;;;;;;;;5100546;28;20228;-63
2022/07/31 03:48:14;;;;;;;2.87;1.67;;;;;;;;;;5100431;28;20684;-63
2022/07/31 03:50:42;;;;;;;1.60;1.50;;;;;;;;;;5100746;28;20231;-63
2022/07/31 03:53:11;;;;;;;3.13;1.63;;;;;;;;;;5100529;28;20218;-63
2022/07/31 03:55:39;;;;;;;1.60;1.50;;;;;;;;;;5099895;28;20228;-63
2022/07/31 03:58:08;;;;;;;1.90;1.80;;;;;;;;;;5100536;28;20235;-63
2022/07/31 04:00:37;;;;;;;1.83;1.73;;;;;;;;;;5100539;28;20265;-63
2022/07/31 04:03:06;;;;;;;2.40;1.67;;;;;;;;;;5100351;28;20258;-63
2022/07/31 04:05:35;;;;;;;2.10;1.90;;;;;;;;;;5100225;28;20651;-63
2022/07/31 04:08:02;;;;;;;2.77;2.10;;;;;;;;;;5100331;28;20242;-63
2022/07/31 04:10:30;;;;;;;3.67;2.43;;;;;;;;;;5100033;28;20238;-63
2022/07/31 04:12:58;;;;;;;3.40;1.80;;;;;;;;;;5100208;28;20202;-64
2022/07/31 04:15:28;;;;;;;2.63;2.43;;;;;;;;;;5098685;28;20275;-63
2022/07/31 04:17:56;;;;;;;4.80;3.07;;;;;;;;;;5099481;28;20569;-63
2022/07/31 04:20:24;;;;;;;2.47;1.93;;;;;;;;;;5098967;28;20264;-63
2022/07/31 04:22:52;;;;;;;5.20;2.00;;;;;;;;;;5099883;28;20231;-63
2022/07/31 04:25:22;;;;;;;4.40;2.17;;;;;;;;;;5097215;28;20633;-63
2022/07/31 04:27:50;;;;;;;2.53;2.30;;;;;;;;;;5100710;28;20233;-63
2022/07/31 04:30:18;;;;;;;5.20;2.97;;;;;;;;;;5100079;28;20226;-63
2022/07/31 04:32:47;;;;;;;2.20;2.00;;;;;;;;;;5099068;28;20714;-63
2022/07/31 04:35:15;;;;;;;3.73;2.07;;;;;;;;;;5100542;28;20258;-63
2022/07/31 04:37:43;;;;;;;2.93;1.70;;;;;;;;;;5101261;28;20280;-63
2022/07/31 04:40:15;;;;;;;2.90;2.00;;;;;;;;;;5098099;28;20701;-63
2022/07/31 04:42:43;;;;;;;3.00;1.77;;;;;;;;;;5100084;28;20198;-63
2022/07/31 04:45:11;;;;;;;1.97;1.70;;;;;;;;;;5100449;28;20193;-63
2022/07/31 04:47:39;;;;;;;3.57;2.10;;;;;;;;;;5098485;28;20231;-63
2022/07/31 04:50:09;;;;;;;2.17;2.03;;;;;;;;;;5099016;28;20620;-64
2022/07/31 04:52:37;;;;;;;2.20;2.00;;;;;;;;;;5099490;28;20623;-63
2022/07/31 04:55:06;;;;;;;5.33;2.00;;;;;;;;;;5099721;28;20228;-63
2022/07/31 04:57:34;;;;;;;4.63;3.00;;;;;;;;;;5098416;28;20204;-63
2022/07/31 05:00:02;;;;;;;4.27;3.30;;;;;;;;;;5100580;28;20698;-63
2022/07/31 05:02:30;;;;;;;3.27;2.07;;;;;;;;;;5101528;28;20243;-63
2022/07/31 05:04:58;;;;;;;2.10;1.90;;;;;;;;;;5098757;28;20245;-63
2022/07/31 05:07:27;;;;;;;2.33;2.03;;;;;;;;;;5099414;28;20204;-64
2022/07/31 05:09:56;;;;;;;3.57;2.20;;;;;;;;;;5099941;28;20572;-63
2022/07/31 05:12:24;;;;;;;4.37;1.93;;;;;;;;;;5099470;28;20700;-63
2022/07/31 05:14:52;;;;;;;3.90;2.13;;;;;;;;;;5098103;28;20581;-63
2022/07/31 05:17:20;;;;;;;4.17;2.20;;;;;;;;;;5096418;28;20227;-63
2022/07/31 05:19:48;;;;;;;4.67;1.87;;;;;;;;;;5099473;28;20221;-63
2022/07/31 05:22:16;;;;;;;3.17;2.20;;;;;;;;;;5100290;28;20198;-63
2022/07/31 05:24:47;;;;;;;2.57;1.90;;;;;;;;;;5100013;28;20229;-63
2022/07/31 05:27:15;;;;;;;2.77;1.97;;;;;;;;;;5098346;28;20201;-63
2022/07/31 05:29:43;;;;;;;2.17;1.60;;;;;;;;;;5091796;28;20626;-63
2022/07/31 05:32:11;;;;;;;2.63;2.00;;;;;;;;;;5101378;28;20206;-62
2022/07/31 05:34:39;;;;;;;2.77;1.70;;;;;;;;;;5095562;28;20765;-62
2022/07/31 05:37:07;;;;;;;4.57;1.80;;;;;;;;;;5097810;28;20235;-62
2022/07/31 05:39:35;;;;;;;1.97;1.77;;;;;;;;;;5098012;28;20206;-62
2022/07/31 05:42:05;;;;;;;2.17;1.97;;;;;;;;;;5104969;28;20229;-62
2022/07/31 05:44:33;;;;;;;2.70;2.20;;;;;;;;;;5118394;28;20270;-62
2022/07/31 05:47:01;;;;;;;6.67;2.97;;;;;;;;;;5089884;28;20203;-61
2022/07/31 05:49:29;;;;;;;5.80;2.10;;;;;;;;;;5107763;28;20204;-62
2022/07/31 05:51:57;;;;;;;2.33;2.13;;;;;;;;;;5118483;28;20237;-62
2022/07/31 05:54:25;;;;;;;3.83;2.67;;;;;;;;;;5099630;28;20228;-62
2022/07/31 05:56:53;;;;;;;5.70;2.27;;;;;;;;;;5102217;28;20235;-61
2022/07/31 05:59:23;;;;;;;4.73;2.30;;;;;;;;;;5101171;28;20633;-62
2022/07/31 06:01:51;;;;;;;4.27;2.10;;;;;;;;;;5097848;28;20229;-62
2022/07/31 06:04:20;;;;;;;2.50;2.30;;;;;;;;;;5098527;28;20217;-62
2022/07/31 06:06:48;;;;;;;4.33;2.20;;;;;;;;;;5097561;28;20227;-63
2022/07/31 06:09:16;;;;;;;4.47;2.33;;;;;;;;;;5097711;28;20208;-62
2022/07/31 06:11:44;;;;;;;4.73;1.93;;;;;;;;;;5097590;28;20704;-62
2022/07/31 06:14:12;;;;;;;2.77;1.83;;;;;;;;;;5097742;28;20250;-62
2022/07/31 06:16:41;;;;;;;2.20;2.00;;;;;;;;;;5097521;28;20661;-62
2022/07/31 06:19:09;;;;;;;2.30;2.10;;;;;;;;;;5097333;28;20242;-63
2022/07/31 06:21:37;;;;;;;5.30;2.30;;;;;;;;;;5089885;28;20614;-62
2022/07/31 06:24:05;;;;;;;2.10;2.00;;;;;;;;;;5094477;28;20238;-62
2022/07/31 06:26:35;;;;;;;2.60;2.40;;;;;;;;;;5097424;28;20656;-62
2022/07/31 06:29:03;;;;;;;3.63;2.17;;;;;;;;;;5097489;28;20199;-62
2022/07/31 06:31:31;;;;;;;2.93;2.07;;;;;;;;;;5097775;28;20209;-62
2022/07/31 06:34:01;;;;;;;3.43;2.10;;;;;;;;;;5097529;28;20249;-62
2022/07/31 06:36:29;;;;;;;3.10;2.43;;;;;;;;;;5095201;28;20224;-62
2022/07/31 06:38:57;;;;;;;3.17;1.90;;;;;;;;;;5097409;28;20212;-62
2022/07/31 06:44:10;;;;;;;4.73;2.27;;;;;;;;;;5121664;28;20316;-60
2022/07/31 06:46:38;;;;;;;6.00;2.40;;;;;;;;;;5107135;28;20232;-60
2022/07/31 06:49:17;;;;;;;2.07;1.87;;;;;;;;;;5103511;28;20193;-61
2022/07/31 06:51:45;;;;;;;2.73;2.30;;;;;;;;;;5098994;28;20259;-61
2022/07/31 06:54:14;;;;;;;1.90;1.80;;;;;;;;;;5100471;28;20218;-61
2022/07/31 06:56:42;;;;;;;4.60;1.80;;;;;;;;;;5103186;28;20217;-62
2022/07/31 06:59:10;;;;;;;3.40;1.83;;;;;;;;;;5102291;28;20195;-61
2022/07/31 07:01:38;;;;;;;5.37;1.83;;;;;;;;;;5098284;28;20239;-61
2022/07/31 07:04:06;;;;;;;2.50;2.13;;;;;;;;;;5117131;28;20229;-61
2022/07/31 07:06:36;;;;;;;2.80;1.90;;;;;;;;;;5121485;28;20568;-61
2022/07/31 07:09:04;;;;;;;2.27;1.70;;;;;;;;;;5121200;28;20224;-61
2022/07/31 07:11:32;;;;;;;2.50;2.30;;;;;;;;;;5106967;28;20212;-61
2022/07/31 07:14:00;;;;;;;3.13;1.97;;;;;;;;;;5101180;28;20274;-61
2022/07/31 07:16:28;;;;;;;5.00;1.80;;;;;;;;;;5100797;28;20587;-61
2022/07/31 07:18:56;;;;;;;3.37;1.53;;;;;;;;;;5101180;28;20213;-61
2022/07/31 07:21:25;;;;;;;1.97;1.80;;;;;;;;;;5101145;28;20234;-61
2022/07/31 07:23:54;;;;;;;2.93;1.57;;;;;;;;;;5098188;28;20271;-61
2022/07/31 07:26:22;;;;;;;2.03;1.77;;;;;;;;;;5100741;28;20207;-62
2022/07/31 07:28:50;;;;;;;2.53;2.17;;;;;;;;;;5087509;28;20290;-62
2022/07/31 07:31:18;;;;;;;2.27;1.80;;;;;;;;;;5100748;28;20255;-62
2022/07/31 07:33:47;;;;;;;4.10;2.07;;;;;;;;;;5100747;28;20233;-62
2022/07/31 07:36:15;;;;;;;1.90;1.80;;;;;;;;;;5100766;28;20233;-62
2022/07/31 07:38:52;;;;;;;2.23;2.10;;;;;;;;;;5100524;28;20230;-62
2022/07/31 07:41:23;;;;;;;2.10;1.80;;;;;;;;;;5111286;28;20728;-62
2022/07/31 07:43:51;;;;;;;2.03;1.90;;;;;;;;;;5120950;28;20237;-62
2022/07/31 07:46:20;;;;;;;4.28;1.98;;;;;;;;;;5095035;28;20629;-62
2022/07/31 07:48:49;;;;;;;3.75;1.92;;;;;;;;;;5100501;28;20234;-62
2022/07/31 07:51:18;;;;;;;4.38;2.38;;;;;;;;;;5100463;28;20209;-61
2022/07/31 07:53:46;;;;;;;2.95;2.35;;;;;;;;;;5099422;28;20274;-61
2022/07/31 07:56:14;;;;;;;2.63;2.00;;;;;;;;;;5100296;28;20211;-61
2022/07/31 07:58:44;;;;;;;4.70;2.00;;;;;;;;;;5100339;28;20212;-62
2022/07/31 08:01:12;;;;;;;2.78;1.73;;;;;;;;;;5099684;28;20211;-61
2022/07/31 08:03:40;;;;;;;4.07;1.80;;;;;;;;;;5086593;28;20232;-62
2022/07/31 08:06:19;;;;;;;4.90;2.40;;;;;;;;;;5100149;28;20213;-62
2022/07/31 08:08:47;;;;;;;2.42;2.03;;;;;;;;;;5099547;28;20214;-61
2022/07/31 08:11:15;;;;;;;2.10;1.70;;;;;;;;;;5099708;28;20248;-62
2022/07/31 08:13:46;;;;;;;1.23;1.20;;;;;;;;;;5099823;28;20240;-62
2022/07/31 08:16:17;;;;;;;4.85;1.30;;;;;;;;;;5099931;28;20216;-62
2022/07/31 08:18:45;;;;;;;1.40;1.33;;;;;;;;;;5094335;28;20231;-62
2022/07/31 08:21:13;;;;;;;1.67;1.57;;;;;;;;;;5098251;28;20218;-62
2022/07/31 08:23:42;;;;;;;2.15;1.35;;;;;;;;;;5094212;28;20263;-61
2022/07/31 08:26:10;;;;;;;7.15;1.27;;;;;;;;;;5098730;28;20264;-62
2022/07/31 08:28:40;;;;;;;1.63;1.48;;;;;;;;;;5099490;28;20690;-62
2022/07/31 08:31:19;;;;;;;2.88;1.20;;;;;;;;;;5096479;28;20192;-62
2022/07/31 08:33:47;;;;;;;1.20;1.20;;;;;;;;;;5099095;28;20317;-62
2022/07/31 08:36:15;;;;;;;1.20;1.10;;;;;;;;;;5094440;28;20254;-63
2022/07/31 08:38:43;;;;;;;2.75;1.48;;;;;;;;;;5098749;28;20225;-62
2022/07/31 08:41:12;;;;;;;2.05;1.23;;;;;;;;;;5099076;28;20206;-64
2022/07/31 08:43:40;;;;;;;1.23;1.20;;;;;;;;;;5098985;28;20220;-63
2022/07/31 08:46:31;;;;;;;2.70;1.50;;;;;;;;;;5099252;28;20211;-64
2022/07/31 08:49:01;;;;;;;2.58;1.40;;;;;;;;;;5098940;28;20239;-64
2022/07/31 08:51:30;;;;;;;2.45;1.20;;;;;;;;;;5097519;28;20664;-64
2022/07/31 08:53:59;;;;;;;1.20;1.10;;;;;;;;;;5092968;28;20226;-65
2022/07/31 08:56:27;;;;;;;1.13;1.00;;;;;;;;;;5096112;28;20204;-64
2022/07/31 08:58:55;;;;;;;3.97;1.40;;;;;;;;;;5099579;28;20262;-65
2022/07/31 09:01:23;;;;;;;3.53;1.20;;;;;;;;;;5099034;28;20208;-65
2022/07/31 09:03:54;;;;;;;2.25;1.30;;;;;;;;;;5102955;28;20277;-63
2022/07/31 09:06:22;;;;;;;1.92;1.20;;;;;;;;;;5107871;28;20234;-64
2022/07/31 09:08:50;;;;;;;2.78;1.10;;;;;;;;;;5106516;28;20636;-64
2022/07/31 09:11:18;;;;;;;1.40;1.27;;;;;;;;;;5107550;28;20231;-64
2022/07/31 09:13:53;;;;;;;1.70;1.60;;;;;;;;;;5108493;28;20953;-65
2022/07/31 09:16:29;;;;;;;3.22;1.60;;;;;;;;;;5107892;28;20208;-64
2022/07/31 09:19:00;;;;;;;1.90;1.15;;;;;;;;;;5108023;28;20617;-64
2022/07/31 09:21:38;;;;;;;5.10;1.13;;;;;;;;;;5107234;28;20203;-64
2022/07/31 09:24:07;;;;;;;2.67;1.33;;;;;;;;;;5108230;28;20267;-62
2022/07/31 09:26:35;;;;;;;1.80;1.67;;;;;;;;;;5106022;28;20630;-63
2022/07/31 09:29:07;;;;;;;3.13;1.30;;;;;;;;;;5108586;28;20197;-64
2022/07/31 09:31:35;;;;;;;1.45;1.35;;;;;;;;;;5106347;28;20205;-61
2022/07/31 09:34:05;;;;;;;3.33;1.42;;;;;;;;;;5097405;28;20320;-60
2022/07/31 09:36:33;;;;;;;3.40;1.05;;;;;;;;;;5098213;28;20244;-62
2022/07/31 09:39:01;;;;;;;2.75;1.33;;;;;;;;;;5098310;28;20312;-63
2022/07/31 09:41:32;;;;;;;1.88;1.30;;;;;;;;;;5098468;28;20209;-60
2022/07/31 09:44:20;;;;;;;3.08;1.70;;;;;;;;;;5091216;28;20225;-68
2022/07/31 09:46:52;;;;;;;1.38;1.25;;;;;;;;;;5098461;28;20288;-69
2022/07/31 09:49:31;;;;;;;1.17;1.08;;;;;;;;;;5098320;28;20338;-68
2022/07/31 09:52:00;;;;;;;3.83;1.40;;;;;;;;;;5097833;28;20193;-70
2022/07/31 09:54:30;;;;;;;1.17;1.08;;;;;;;;;;5098157;28;20266;-70
2022/07/31 09:56:58;;;;;;;1.35;1.15;;;;;;;;;;5095633;28;20197;-70
2022/07/31 09:59:26;;;;;;;3.85;1.52;;;;;;;;;;5099301;28;20248;-70
2022/07/31 10:01:54;;;;;;;1.33;1.10;;;;;;;;;;5096912;28;20566;-70
2022/07/31 10:04:22;;;;;;;1.30;1.20;;;;;;;;;;5098858;28;20253;-70
2022/07/31 10:06:52;;;;;;;2.15;1.13;;;;;;;;;;5097533;28;20684;-70
2022/07/31 10:09:20;;;;;;;1.92;1.20;;;;;;;;;;5097785;28;20229;-71
2022/07/31 10:11:50;;;;;;;3.25;1.30;;;;;;;;;;5097822;28;20296;-70
2022/07/31 10:14:20;;;;;;;3.13;1.15;;;;;;;;;;5096322;28;20260;-62
2022/07/31 10:16:48;;;;;;;5.28;1.95;;;;;;;;;;5098143;28;20632;-62
2022/07/31 10:19:17;;;;;;;4.28;2.05;;;;;;;;;;5098128;28;20220;-61
2022/07/31 10:21:48;;;;;;;3.40;1.27;;;;;;;;;;5099859;28;20204;-62
2022/07/31 10:24:19;;;;;;;1.88;1.20;;;;;;;;;;5096981;28;20278;-62
2022/07/31 10:26:56;;;;;;;1.50;1.35;;;;;;;;;;5098197;28;20211;-63
2022/07/31 10:29:28;;;;;;;2.20;1.30;;;;;;;;;;5098548;28;20243;-61
2022/07/31 10:31:59;;;;;;;1.58;1.48;;;;;;;;;;5094880;28;20211;-61
2022/07/31 10:34:28;;;;;;;1.33;1.10;;;;;;;;;;5096482;28;20681;-61
2022/07/31 10:36:59;;;;;;;3.30;1.40;;;;;;;;;;5097050;28;20229;-61
2022/07/31 10:39:35;;;;;;;3.78;1.40;;;;;;;;;;5097160;28;20249;-61
2022/07/31 10:42:08;;;;;;;1.33;1.23;;;;;;;;;;5096932;28;20228;-61
2022/07/31 10:44:38;;;;;;;2.00;1.00;;;;;;;;;;5097296;28;20246;-61
2022/07/31 10:47:13;;;;;;;3.58;1.27;;;;;;;;;;5094484;28;20197;-61
2022/07/31 10:49:42;;;;;;;1.33;1.00;;;;;;;;;;5097804;28;20232;-61
2022/07/31 10:52:10;;;;;;;4.50;1.40;;;;;;;;;;5089836;28;20216;-61
2022/07/31 10:54:40;;;;;;;1.95;1.15;;;;;;;;;;5096896;28;20221;-61
2022/07/31 10:57:08;;;;;;;1.38;1.23;;;;;;;;;;5096742;28;20228;-61
2022/07/31 10:59:36;;;;;;;5.25;1.33;;;;;;;;;;5097950;28;20256;-61
2022/07/31 11:02:10;;;;;;;1.10;1.10;;;;;;;;;;5098672;28;20198;-61
2022/07/31 11:04:39;;;;;;;4.88;1.38;;;;;;;;;;5098670;28;20601;-61
2022/07/31 11:07:14;;;;;;;2.03;1.67;;;;;;;;;;5098362;28;20243;-61
2022/07/31 11:09:43;;;;;;;1.80;1.48;;;;;;;;;;5094213;28;20219;-61
2022/07/31 11:12:18;;;;;;;2.47;1.23;;;;;;;;;;5117492;28;20226;-61
2022/07/31 11:14:46;;;;;;;3.03;1.10;;;;;;;;;;5106864;28;20268;-61
2022/07/31 11:17:14;;;;;;;2.53;1.38;;;;;;;;;;5097102;28;20690;-61
2022/07/31 11:19:43;;;;;;;1.40;1.30;;;;;;;;;;5096966;28;20225;-61
2022/07/31 11:22:11;;;;;;;1.98;1.35;;;;;;;;;;5097243;28;20687;-61
2022/07/31 11:25:01;;;;;;;1.67;1.10;;;;;;;;;;5096477;28;20742;-61
2022/07/31 11:27:32;;;;;;;1.23;1.13;;;;;;;;;;5095687;28;20227;-61
2022/07/31 11:30:04;;;;;;;1.73;1.08;;;;;;;;;;5098569;28;20247;-61
2022/07/31 11:32:39;;;;;;;2.63;1.20;;;;;;;;;;5098868;28;20233;-61
2022/07/31 11:35:07;;;;;;;2.35;1.45;;;;;;;;;;5099214;28;20229;-61
2022/07/31 11:37:35;;;;;;;3.00;1.30;;;;;;;;;;5099094;28;20205;-62
2022/07/31 11:40:25;;;;;;;1.30;1.20;;;;;;;;;;5098857;28;20288;-61
2022/07/31 11:42:54;;;;;;;1.30;1.20;;;;;;;;;;5100057;28;20201;-61
2022/07/31 11:45:46;;;;;;;1.67;1.25;;;;;;;;;;5101053;28;20207;-61
2022/07/31 11:48:15;;;;;;;1.05;1.00;;;;;;;;;;5100275;28;20676;-61
2022/07/31 11:50:46;;;;;;;3.92;1.30;;;;;;;;;;5099422;28;20201;-61
2022/07/31 11:53:14;;;;;;;2.22;1.17;;;;;;;;;;5100361;28;20753;-61
2022/07/31 11:55:48;;;;;;;1.58;1.05;;;;;;;;;;5100400;28;20602;-61
2022/07/31 11:58:17;;;;;;;3.25;1.10;;;;;;;;;;5099992;28;20250;-61
2022/07/31 12:00:49;;;;;;;2.35;1.20;;;;;;;;;;5096686;28;20303;-62
2022/07/31 12:03:17;;;;;;;1.17;1.10;;;;;;;;;;5102088;28;20233;-61
2022/07/31 12:05:45;;;;;;;1.30;1.20;;;;;;;;;;5099780;28;20250;-62
2022/07/31 12:08:14;;;;;;;1.48;1.15;;;;;;;;;;5097939;28;20205;-61
2022/07/31 12:10:42;;;;;;;2.08;1.25;;;;;;;;;;5101092;28;20228;-62
2022/07/31 12:13:12;;;;;;;1.45;1.35;;;;;;;;;;5101210;28;20225;-61
2022/07/31 12:15:53;;;;;;;1.45;1.35;;;;;;;;;;5100135;28;20201;-62
2022/07/31 12:18:21;;;;;;;2.00;1.38;;;;;;;;;;5099911;28;20674;-62
2022/07/31 12:20:53;;;;;;;1.60;1.35;;;;;;;;;;5099731;28;20217;-63
2022/07/31 12:23:21;;;;;;;2.15;1.88;;;;;;;;;;5101735;28;20221;-62
2022/07/31 12:26:07;;;;;;;2.90;1.30;;;;;;;;;;5097370;28;20575;-61
2022/07/31 12:28:36;;;;;;;0.90;0.90;;;;;;;;;;5101453;28;20229;-61
2022/07/31 12:31:04;;;;;;;1.70;1.10;;;;;;;;;;5101467;28;20205;-62
2022/07/31 12:33:39;;;;;;;2.35;1.20;;;;;;;;;;5102389;28;20306;-62
2022/07/31 12:36:11;;;;;;;1.20;1.05;;;;;;;;;;5099903;28;20227;-61
2022/07/31 12:38:39;;;;;;;3.83;1.88;;;;;;;;;;5107658;28;20196;-61
2022/07/31 12:41:15;;;;;;;2.10;1.67;;;;;;;;;;5116377;28;20279;-60
2022/07/31 12:43:44;;;;;;;1.90;1.23;;;;;;;;;;5101192;28;20218;-60
2022/07/31 12:46:20;;;;;;;2.30;1.20;;;;;;;;;;5100227;28;20201;-60
2022/07/31 12:48:48;;;;;;;6.22;3.05;;;;;;;;;;5096610;28;20229;-60
2022/07/31 12:51:18;;;;;;;5.28;1.50;;;;;;;;;;5103039;28;20205;-60
2022/07/31 12:54:07;;;;;;;2.88;1.60;;;;;;;;;;5098583;28;20312;-61
2022/07/31 12:56:35;;;;;;;2.65;1.52;;;;;;;;;;5103320;28;20198;-60
2022/07/31 12:59:04;;;;;;;2.42;1.30;;;;;;;;;;5101077;28;20197;-61
2022/07/31 13:01:33;;;;;;;1.27;1.10;;;;;;;;;;5098570;28;20236;-61
2022/07/31 13:04:02;;;;;;;3.72;1.55;;;;;;;;;;5098868;28;20243;-61
2022/07/31 13:06:30;;;;;;;3.03;2.15;;;;;;;;;;5096143;28;20656;-61
2022/07/31 13:08:58;;;;;;;1.63;1.50;;;;;;;;;;5099855;28;20197;-60
2022/07/31 13:11:29;;;;;;;3.45;1.75;;;;;;;;;;5107165;28;20235;-61
2022/07/31 13:14:15;;;;;;;2.47;1.38;;;;;;;;;;5105876;28;21028;-61
2022/07/31 13:16:43;;;;;;;1.30;1.20;;;;;;;;;;5109353;28;20220;-60
2022/07/31 13:19:11;;;;;;;3.33;1.40;;;;;;;;;;5108774;28;20246;-61
2022/07/31 13:21:39;;;;;;;1.20;1.10;;;;;;;;;;5107710;27;20205;-61
2022/07/31 13:24:17;;;;;;;1.50;1.17;;;;;;;;;;5097120;28;20707;-60
2022/07/31 13:26:45;;;;;;;3.38;1.40;;;;;;;;;;5099836;28;20197;-61
2022/07/31 13:29:13;;;;;;;2.25;1.48;;;;;;;;;;5098320;28;20197;-61
2022/07/31 13:31:42;;;;;;;2.47;1.10;;;;;;;;;;5100104;28;20243;-61
2022/07/31 13:34:10;;;;;;;2.67;1.55;;;;;;;;;;5100165;28;20228;-62
2022/07/31 13:36:38;;;;;;;1.30;1.20;;;;;;;;;;5100712;28;20600;-61
2022/07/31 13:39:07;;;;;;;2.28;1.48;;;;;;;;;;5097914;28;20201;-61
2022/07/31 13:41:35;;;;;;;2.63;1.63;;;;;;;;;;5099170;28;20326;-61
2022/07/31 13:44:05;;;;;;;2.65;1.20;;;;;;;;;;5097779;28;20271;-61
2022/07/31 13:46:33;;;;;;;1.35;1.25;;;;;;;;;;5105750;28;20193;-61
2022/07/31 13:49:07;;;;;;;1.27;1.15;;;;;;;;;;5107464;28;20209;-61
2022/07/31 13:51:35;;;;;;;3.38;1.30;;;;;;;;;;5104061;28;20189;-61
2022/07/31 13:54:04;;;;;;;1.85;1.30;;;;;;;;;;5104642;28;20244;-61
2022/07/31 13:56:31;;;;;;;1.40;1.30;;;;;;;;;;5108307;28;20315;-61
2022/07/31 13:59:09;;;;;;;2.30;1.48;;;;;;;;;;5102950;28;20208;-61
2022/07/31 14:01:38;;;;;;;1.63;1.50;;;;;;;;;;5117984;28;20216;-61
2022/07/31 14:04:27;;;;;;;1.38;1.27;;;;;;;;;;5118119;28;20243;-74
2022/07/31 14:06:59;;;;;;;1.30;1.30;;;;;;;;;;5104227;28;20229;-61
2022/07/31 14:09:32;;;;;;;5.45;1.50;;;;;;;;;;5098396;28;20538;-62
2022/07/31 14:12:00;;;;;;;3.38;1.23;;;;;;;;;;5102735;28;20279;-61
2022/07/31 14:14:31;;;;;;;1.52;1.42;;;;;;;;;;5103831;28;20216;-62
2022/07/31 14:16:59;;;;;;;1.45;1.23;;;;;;;;;;5099975;28;20197;-61
2022/07/31 14:19:28;;;;;;;1.23;1.10;;;;;;;;;;5102962;28;20197;-62
2022/07/31 14:22:07;;;;;;;1.20;1.10;;;;;;;;;;5098013;28;20671;-61
2022/07/31 14:24:39;;;;;;;2.35;1.30;;;;;;;;;;5097896;28;20229;-61
2022/07/31 14:27:07;;;;;;;2.33;1.30;;;;;;;;;;5097613;28;20564;-61
2022/07/31 14:29:35;;;;;;;1.33;1.20;;;;;;;;;;5098520;28;20224;-61
2022/07/31 14:32:03;;;;;;;2.42;1.17;;;;;;;;;;5101838;28;20220;-61
2022/07/31 14:34:33;;;;;;;1.30;1.20;;;;;;;;;;5095306;28;20227;-62
2022/07/31 14:37:02;;;;;;;1.20;1.20;;;;;;;;;;5101631;28;20280;-61
2022/07/31 14:39:30;;;;;;;2.05;1.38;;;;;;;;;;5102548;28;20201;-61
2022/07/31 14:41:58;;;;;;;1.60;1.27;;;;;;;;;;5103253;28;20238;-61
2022/07/31 14:44:26;;;;;;;3.63;1.30;;;;;;;;;;5097952;28;20773;-61
2022/07/31 14:46:55;;;;;;;1.40;1.30;;;;;;;;;;5097098;28;20905;-61
2022/07/31 14:49:23;;;;;;;1.38;1.27;;;;;;;;;;5104227;28;20659;-60
2022/07/31 14:52:13;;;;;;;1.58;1.30;;;;;;;;;;5096398;28;20193;-61
2022/07/31 14:54:41;;;;;;;2.78;1.20;;;;;;;;;;5098890;28;20221;-61
2022/07/31 14:57:09;;;;;;;1.38;1.27;;;;;;;;;;5097122;28;20687;-61
2022/07/31 14:59:37;;;;;;;2.55;1.85;;;;;;;;;;5097632;28;20624;-61
2022/07/31 15:02:05;;;;;;;2.42;1.70;;;;;;;;;;5114646;28;20608;-61